首页
METAR-TAF:

METAR-TAF

机场 :

勒图凯巴黎普拉日, 法国

纬度: 50-30-53N, 经度: 001-37-39E, 海拔: 6米

当前天气观测

该预报发布于42分钟前的05:30 UTC
风速18节,风向北转西北
温度 7°C
湿度 81%
气压 1021 hPa
能见度10公里或以上
多云层高于2000英尺
阴天层高于2500英尺

METAR: LFAT 010530Z AUTO 34018KT 9999 BKN020 OVC025 07/04 Q1021

时间: 07:12 (06:12 UTC)

预报

该预报发布于1小时和12分钟前的05:00 UTC
预报有效从01日的 06点(UTC)到 01日的 15点(UTC)
风速15节,风向北转西北
能见度10公里或以上
多云层高于2300英尺
短暂存在
从 01日的 06点(UTC)到 01日的 15点(UTC)
风速18节,风向北转西北,有时为28节阵风

TAF: LFAT 010500Z 0106/0115 34015KT 9999 BKN023 TEMPO 0106/0115 34018G28KT

超过4000个机场的气象观测和天气预报(METAR&TAF报告)。

可查询的气象台以黄色和红色小点在地图上表示。

将鼠标移到小点上方,可查看气象台名称。

然后点击查看天气观测和预报。

如需切换地图:点击带黑十字的绿色按钮放大地图;点击带横线的绿色按钮缩小地图;或者点击绿色箭头查看邻近地区的地图。


METAR-TAF: